createdAt,value
2023-09-06T00:00:12.868Z,19.70
2023-09-06T00:02:39.628Z,19.60
2023-09-06T00:05:06.685Z,19.60
2023-09-06T00:07:33.509Z,19.60
2023-09-06T00:10:00.430Z,19.60
2023-09-06T00:12:27.328Z,19.60
2023-09-06T00:14:56.182Z,19.50
2023-09-06T00:17:22.979Z,19.50
2023-09-06T00:19:49.740Z,19.50
2023-09-06T00:22:16.570Z,19.50
2023-09-06T00:24:43.454Z,19.40
2023-09-06T00:27:10.206Z,19.40
2023-09-06T00:29:36.996Z,19.40
2023-09-06T00:32:04.108Z,19.40
2023-09-06T00:34:32.716Z,19.40
2023-09-06T00:36:59.514Z,19.30
2023-09-06T00:39:29.406Z,19.30
2023-09-06T00:41:56.314Z,19.30
2023-09-06T00:44:24.187Z,19.30
2023-09-06T00:46:51.007Z,19.20
2023-09-06T00:49:17.828Z,19.20
2023-09-06T00:51:44.618Z,19.20
2023-09-06T00:54:11.473Z,19.20
2023-09-06T00:56:41.455Z,19.20
2023-09-06T00:59:11.783Z,19.20
2023-09-06T01:01:38.685Z,19.20
2023-09-06T01:04:05.780Z,19.20
2023-09-06T01:06:32.693Z,19.20
2023-09-06T01:08:59.923Z,19.20
2023-09-06T01:11:28.006Z,19.10
2023-09-06T01:13:56.188Z,19.10
2023-09-06T01:16:36.147Z,19.10
2023-09-06T01:19:03.093Z,19.10
2023-09-06T01:21:59.619Z,19.10
2023-09-06T01:24:26.796Z,19.10
2023-09-06T01:26:53.576Z,19.10
2023-09-06T01:29:20.366Z,19.10
2023-09-06T01:31:47.878Z,19.00
2023-09-06T01:34:14.804Z,19.10
2023-09-06T01:36:42.044Z,19.00
2023-09-06T01:39:11.575Z,19.00
2023-09-06T01:41:38.441Z,19.00
2023-09-06T01:44:05.531Z,19.00
2023-09-06T01:46:32.465Z,19.00
2023-09-06T01:49:01.142Z,18.90
2023-09-06T01:51:28.026Z,18.90
2023-09-06T01:53:54.794Z,18.90
2023-09-06T01:56:21.649Z,18.90
2023-09-06T01:58:48.534Z,18.90
2023-09-06T02:01:15.449Z,18.90
2023-09-06T02:03:42.619Z,18.80
2023-09-06T02:06:09.675Z,18.80
2023-09-06T02:08:36.915Z,18.80
2023-09-06T02:11:03.802Z,18.80
2023-09-06T02:13:30.565Z,18.80
2023-09-06T02:15:57.435Z,18.70
2023-09-06T02:18:27.293Z,18.70
2023-09-06T02:20:57.269Z,18.70
2023-09-06T02:23:24.162Z,18.60
2023-09-06T02:25:50.959Z,18.60
2023-09-06T02:28:18.685Z,18.50
2023-09-06T02:30:45.696Z,18.50
2023-09-06T02:33:15.551Z,18.50
2023-09-06T02:35:42.677Z,18.40
2023-09-06T02:38:10.106Z,18.40
2023-09-06T02:40:37.253Z,18.40
2023-09-06T02:43:05.668Z,18.40
2023-09-06T02:45:38.468Z,18.40
2023-09-06T02:48:14.479Z,18.40
2023-09-06T02:50:41.687Z,18.40
2023-09-06T02:53:21.095Z,18.30
2023-09-06T02:55:49.332Z,18.40
2023-09-06T02:58:19.680Z,18.30
2023-09-06T03:00:50.384Z,18.30
2023-09-06T03:03:17.572Z,18.30
2023-09-06T03:05:44.668Z,18.30
2023-09-06T03:08:13.221Z,18.20
2023-09-06T03:10:45.711Z,18.20
2023-09-06T03:13:12.731Z,18.20
2023-09-06T03:15:44.816Z,18.20
2023-09-06T03:18:12.091Z,18.20
2023-09-06T03:20:45.055Z,18.20
2023-09-06T03:23:20.697Z,18.20
2023-09-06T03:25:59.592Z,18.10
2023-09-06T03:28:27.747Z,18.10
2023-09-06T03:30:59.634Z,18.10
2023-09-06T03:33:27.749Z,18.10
2023-09-06T03:35:54.609Z,18.10
2023-09-06T03:38:26.420Z,18.10
2023-09-06T03:40:53.696Z,18.10
2023-09-06T03:43:31.929Z,18.10
2023-09-06T03:45:59.926Z,18.10
2023-09-06T03:48:29.004Z,18.10
2023-09-06T03:50:57.545Z,18.10
2023-09-06T03:53:27.744Z,18.00
2023-09-06T03:55:58.453Z,18.00
2023-09-06T03:58:26.598Z,18.00
2023-09-06T04:00:54.097Z,18.00
2023-09-06T04:03:21.628Z,18.00
2023-09-06T04:05:48.671Z,18.00
2023-09-06T04:08:19.263Z,18.00
2023-09-06T04:10:46.685Z,18.00
2023-09-06T04:13:14.526Z,18.00
2023-09-06T04:15:44.091Z,17.90
2023-09-06T04:18:11.846Z,17.90
2023-09-06T04:20:40.724Z,17.90
2023-09-06T04:23:08.910Z,17.90
2023-09-06T04:25:42.899Z,17.90
2023-09-06T04:28:10.698Z,17.90
2023-09-06T04:30:38.232Z,17.90
2023-09-06T04:33:06.806Z,17.80
2023-09-06T04:35:44.349Z,17.80
2023-09-06T04:38:19.896Z,17.80
2023-09-06T04:40:47.505Z,17.70
2023-09-06T04:43:15.462Z,17.70
2023-09-06T04:45:42.290Z,17.70
2023-09-06T04:48:13.639Z,17.70
2023-09-06T04:50:46.408Z,17.70
2023-09-06T04:53:13.785Z,17.70
2023-09-06T04:55:41.285Z,17.70
2023-09-06T04:58:12.308Z,17.70
2023-09-06T05:00:44.766Z,17.70
2023-09-06T05:03:18.701Z,17.70
2023-09-06T05:06:26.691Z,17.70
2023-09-06T05:08:51.545Z,17.70
2023-09-06T05:11:18.310Z,17.60
2023-09-06T05:13:45.231Z,17.70
2023-09-06T05:16:12.051Z,17.60
2023-09-06T05:18:38.861Z,17.60
2023-09-06T05:21:06.197Z,17.60
2023-09-06T05:23:37.301Z,17.60
2023-09-06T05:26:04.654Z,17.60
2023-09-06T05:28:33.389Z,17.60
2023-09-06T05:31:02.387Z,17.60
2023-09-06T05:33:29.161Z,17.60
2023-09-06T05:35:55.899Z,17.60
2023-09-06T05:38:22.665Z,17.60
2023-09-06T05:40:51.611Z,17.60
2023-09-06T05:43:18.457Z,17.60
2023-09-06T05:45:45.212Z,17.70
2023-09-06T05:48:27.009Z,17.60
2023-09-06T05:50:53.963Z,17.70
2023-09-06T05:53:20.796Z,17.70
2023-09-06T05:55:50.991Z,17.70
2023-09-06T05:58:17.775Z,17.70
2023-09-06T06:00:45.148Z,17.70
2023-09-06T06:03:12.203Z,17.70
2023-09-06T06:05:39.978Z,17.80
2023-09-06T06:08:11.015Z,17.80
2023-09-06T06:10:38.367Z,17.80
2023-09-06T06:13:06.372Z,17.80
2023-09-06T06:15:33.272Z,17.80
2023-09-06T06:18:00.105Z,17.90
2023-09-06T06:20:38.482Z,17.90
2023-09-06T06:23:09.334Z,18.00
2023-09-06T06:25:37.089Z,18.00
2023-09-06T06:28:04.294Z,18.10
2023-09-06T06:30:31.393Z,18.10
2023-09-06T06:33:01.569Z,18.10
2023-09-06T06:35:28.991Z,18.10
2023-09-06T06:37:56.692Z,18.20
2023-09-06T06:40:25.586Z,18.10
2023-09-06T06:42:52.917Z,18.20
2023-09-06T06:45:19.908Z,18.30
2023-09-06T06:47:47.598Z,18.30
2023-09-06T06:50:15.063Z,18.40
2023-09-06T06:52:45.763Z,18.40
2023-09-06T06:55:12.986Z,18.40
2023-09-06T06:57:39.892Z,18.50
2023-09-06T07:00:08.742Z,18.50
2023-09-06T07:02:36.297Z,18.60
2023-09-06T07:05:03.703Z,18.60
2023-09-06T07:07:30.634Z,18.70
2023-09-06T07:09:57.452Z,18.90
2023-09-06T07:12:24.918Z,18.90
2023-09-06T07:14:53.187Z,19.00
2023-09-06T07:17:20.188Z,19.10
2023-09-06T07:19:47.088Z,19.10
2023-09-06T07:22:15.922Z,19.20
2023-09-06T07:24:45.811Z,19.30
2023-09-06T07:27:12.682Z,19.40
2023-09-06T07:29:40.738Z,19.50
2023-09-06T07:32:07.605Z,19.60
2023-09-06T07:34:34.520Z,19.60
2023-09-06T07:37:01.547Z,19.70
2023-09-06T07:39:28.480Z,19.80
2023-09-06T07:41:56.894Z,19.90
2023-09-06T07:44:24.031Z,19.90
2023-09-06T07:46:52.133Z,20.00
2023-09-06T07:49:20.053Z,20.10
2023-09-06T07:51:47.067Z,20.20
2023-09-06T07:54:13.894Z,20.30
2023-09-06T07:56:40.930Z,20.30
2023-09-06T07:59:10.316Z,20.40
2023-09-06T08:01:37.131Z,20.50
2023-09-06T08:04:04.338Z,20.60
2023-09-06T08:06:31.533Z,20.60
2023-09-06T08:08:59.709Z,20.70
2023-09-06T08:11:26.960Z,20.70
2023-09-06T08:13:54.172Z,20.80
2023-09-06T08:16:21.310Z,20.90
2023-09-06T08:18:48.678Z,21.00
2023-09-06T08:21:17.100Z,21.10
2023-09-06T08:23:45.052Z,21.20
2023-09-06T08:26:15.179Z,21.30
2023-09-06T08:28:42.343Z,21.40
2023-09-06T08:31:09.456Z,21.50
2023-09-06T08:33:36.647Z,21.60
2023-09-06T08:36:06.621Z,21.70
2023-09-06T08:38:34.449Z,21.80
2023-09-06T08:41:02.576Z,21.90
2023-09-06T08:43:36.429Z,22.10
2023-09-06T08:46:07.688Z,22.10
2023-09-06T08:48:35.171Z,22.30
2023-09-06T08:51:02.388Z,22.40
2023-09-06T08:53:29.882Z,22.50
2023-09-06T08:56:01.546Z,22.70
2023-09-06T08:58:29.476Z,22.80
2023-09-06T09:00:57.160Z,22.90
2023-09-06T09:03:24.684Z,23.00
2023-09-06T09:05:51.901Z,23.10
2023-09-06T09:08:18.787Z,23.20
2023-09-06T09:10:45.712Z,23.40
2023-09-06T09:13:16.952Z,23.50
2023-09-06T09:15:44.034Z,23.70
2023-09-06T09:18:12.523Z,23.80
2023-09-06T09:20:42.709Z,24.00
2023-09-06T09:23:20.747Z,24.10
2023-09-06T09:25:53.560Z,24.20
2023-09-06T09:28:21.508Z,24.40
2023-09-06T09:30:49.588Z,24.60
2023-09-06T09:33:16.688Z,24.90
2023-09-06T09:35:50.714Z,25.10
2023-09-06T09:38:17.537Z,25.40
2023-09-06T09:43:14.607Z,25.80
2023-09-06T09:45:44.438Z,26.00
2023-09-06T09:48:12.228Z,26.30
2023-09-06T09:50:43.070Z,26.60
2023-09-06T09:53:34.524Z,26.60
2023-09-06T09:56:00.995Z,26.90
2023-09-06T09:58:28.603Z,27.10
2023-09-06T10:01:00.427Z,27.40
2023-09-06T10:03:29.462Z,27.60
2023-09-06T10:05:56.822Z,27.90
2023-09-06T10:08:26.750Z,28.10
2023-09-06T10:10:53.692Z,28.30
2023-09-06T10:13:20.825Z,28.50
2023-09-06T10:16:02.656Z,28.60
2023-09-06T10:18:33.398Z,28.80
2023-09-06T10:21:01.103Z,28.80
2023-09-06T10:23:33.039Z,29.00
2023-09-06T10:26:10.218Z,29.10
2023-09-06T10:28:51.004Z,29.20
2023-09-06T10:31:46.490Z,29.40
2023-09-06T11:10:17.432Z,31.70
2023-09-06T11:15:06.726Z,32.00
2023-09-06T11:30:43.072Z,32.60
2023-09-06T11:33:14.588Z,32.90
2023-09-06T11:35:43.793Z,33.20
2023-09-06T11:38:12.273Z,33.40
2023-09-06T11:40:42.845Z,33.60
2023-09-06T11:43:20.221Z,33.70
2023-09-06T11:45:49.811Z,33.80
2023-09-06T11:48:21.149Z,33.90
2023-09-06T11:50:51.342Z,34.00
2023-09-06T11:53:21.477Z,34.10
2023-09-06T11:55:50.690Z,34.20
2023-09-06T11:58:23.041Z,34.40
2023-09-06T12:00:51.757Z,34.60
2023-09-06T12:03:22.075Z,34.80
2023-09-06T12:05:51.416Z,35.00
2023-09-06T12:08:23.433Z,35.10
2023-09-06T12:10:55.787Z,35.20
2023-09-06T12:13:33.359Z,35.40
2023-09-06T12:16:00.866Z,35.50
2023-09-06T12:18:34.390Z,35.40
2023-09-06T12:21:01.929Z,35.50
2023-09-06T12:23:35.656Z,35.60
2023-09-06T12:26:04.478Z,35.70
2023-09-06T12:28:32.921Z,35.60
2023-09-06T12:31:16.527Z,35.50
2023-09-06T12:33:46.956Z,35.60
2023-09-06T12:36:15.225Z,35.60
2023-09-06T12:38:44.857Z,35.60
2023-09-06T12:41:13.563Z,35.80
2023-09-06T12:43:41.047Z,35.80
2023-09-06T12:46:08.482Z,35.90
2023-09-06T12:48:38.660Z,36.00
2023-09-06T12:51:10.750Z,36.20
2023-09-06T12:53:40.270Z,36.40
2023-09-06T12:56:10.297Z,36.50
2023-09-06T12:58:40.527Z,36.50
2023-09-06T13:01:12.308Z,36.40
2023-09-06T13:03:45.322Z,36.40
2023-09-06T13:06:12.810Z,36.60
2023-09-06T13:08:41.075Z,36.80
2023-09-06T13:11:08.433Z,36.90
2023-09-06T13:13:35.965Z,36.80
2023-09-06T13:16:02.887Z,36.70
2023-09-06T13:18:30.665Z,36.80
2023-09-06T13:20:58.793Z,36.90
2023-09-06T13:23:25.672Z,36.90
2023-09-06T13:25:52.694Z,36.90
2023-09-06T13:28:19.677Z,37.00
2023-09-06T13:30:48.700Z,37.00
2023-09-06T13:33:15.566Z,37.10
2023-09-06T13:35:43.593Z,37.10
2023-09-06T13:38:10.487Z,37.10
2023-09-06T13:40:37.510Z,37.10
2023-09-06T13:43:04.667Z,37.10
2023-09-06T13:45:31.654Z,37.10
2023-09-06T13:47:58.698Z,37.10
2023-09-06T13:50:25.729Z,37.10
2023-09-06T13:52:52.730Z,37.20
2023-09-06T13:55:22.393Z,37.20
2023-09-06T13:57:49.294Z,37.20
2023-09-06T14:00:17.689Z,37.20
2023-09-06T14:02:44.771Z,37.30
2023-09-06T14:05:11.891Z,37.20
2023-09-06T14:07:38.842Z,37.20
2023-09-06T14:10:05.794Z,37.20
2023-09-06T14:12:32.670Z,37.20
2023-09-06T14:14:59.875Z,37.20
2023-09-06T14:17:26.915Z,37.30
2023-09-06T14:19:53.839Z,37.30
2023-09-06T14:22:20.908Z,37.20
2023-09-06T14:24:48.044Z,37.10
2023-09-06T14:27:16.707Z,37.10
2023-09-06T14:29:43.704Z,37.10
2023-09-06T14:32:10.641Z,37.10
2023-09-06T14:34:37.505Z,37.10
2023-09-06T14:37:04.905Z,37.10
2023-09-06T14:39:33.766Z,37.00
2023-09-06T14:42:00.668Z,36.90
2023-09-06T14:44:27.552Z,36.80
2023-09-06T14:46:57.626Z,36.70
2023-09-06T14:49:24.628Z,36.50
2023-09-06T14:51:51.606Z,36.40
2023-09-06T14:54:18.635Z,36.20
2023-09-06T14:56:45.687Z,36.00
2023-09-06T14:59:12.724Z,35.80
2023-09-06T15:01:39.970Z,35.60
2023-09-06T15:04:07.472Z,35.50
2023-09-06T15:06:52.577Z,35.20
2023-09-06T15:09:22.127Z,35.00
2023-09-06T15:11:49.906Z,34.80
2023-09-06T15:14:16.952Z,34.60
2023-09-06T15:16:43.821Z,34.50
2023-09-06T15:19:11.287Z,34.40
2023-09-06T15:21:41.033Z,34.30
2023-09-06T15:24:08.683Z,34.10
2023-09-06T15:26:37.719Z,34.00
2023-09-06T15:29:04.653Z,33.90
2023-09-06T15:31:32.417Z,33.80
2023-09-06T15:33:59.461Z,33.70
2023-09-06T15:36:30.870Z,33.70
2023-09-06T15:38:57.815Z,33.60
2023-09-06T15:41:24.768Z,33.50
2023-09-06T15:43:51.640Z,33.40
2023-09-06T15:46:21.890Z,33.20
2023-09-06T15:48:51.625Z,33.10
2023-09-06T15:51:18.652Z,33.00
2023-09-06T15:53:45.666Z,32.80
2023-09-06T15:56:12.714Z,32.80
2023-09-06T15:58:42.770Z,32.70
2023-09-06T16:01:09.782Z,32.70
2023-09-06T16:03:36.804Z,32.60
2023-09-06T16:06:03.810Z,32.50
2023-09-06T16:08:30.955Z,32.50
2023-09-06T16:10:58.257Z,32.40
2023-09-06T16:13:25.363Z,32.40
2023-09-06T16:15:52.245Z,32.40
2023-09-06T16:18:19.409Z,32.30
2023-09-06T16:20:46.285Z,32.30
2023-09-06T16:23:25.047Z,32.20
2023-09-06T16:25:51.978Z,32.10
2023-09-06T16:29:37.017Z,32.10
2023-09-06T16:31:39.214Z,32.10
2023-09-06T16:34:12.058Z,32.00
2023-09-06T16:36:39.905Z,31.80
2023-09-06T16:39:15.783Z,32.00
2023-09-06T16:41:56.966Z,32.00
2023-09-06T16:44:24.371Z,31.90
2023-09-06T16:47:09.377Z,31.80
2023-09-06T16:49:36.675Z,31.90
2023-09-06T16:55:40.787Z,31.80
2023-09-06T16:58:10.692Z,31.70
2023-09-06T16:58:41.260Z,31.80
2023-09-06T17:01:47.467Z,31.60
2023-09-06T17:04:16.814Z,31.60
2023-09-06T17:07:21.457Z,31.60
2023-09-06T17:10:29.594Z,31.60
2023-09-06T17:13:17.799Z,31.50
2023-09-06T17:16:34.218Z,31.40
2023-09-06T17:22:40.686Z,31.30
2023-09-06T17:25:11.170Z,30.90
2023-09-06T17:27:38.335Z,31.00
2023-09-06T17:30:43.923Z,30.80
2023-09-06T17:36:21.832Z,30.60
2023-09-06T17:38:49.093Z,30.50
2023-09-06T17:41:16.617Z,30.40
2023-09-06T17:43:46.910Z,30.30
2023-09-06T17:46:13.967Z,30.20
2023-09-06T17:48:45.783Z,30.10
2023-09-06T17:51:13.009Z,30.00
2023-09-06T17:53:41.330Z,29.90
2023-09-06T17:56:16.354Z,29.70
2023-09-06T17:58:50.682Z,29.60
2023-09-06T18:01:20.530Z,29.50
2023-09-06T18:03:52.863Z,29.40
2023-09-06T18:06:27.243Z,29.30
2023-09-06T18:09:08.201Z,29.10
2023-09-06T18:11:36.129Z,29.00
2023-09-06T18:14:09.072Z,28.80
2023-09-06T18:16:37.449Z,28.70
2023-09-06T18:19:04.609Z,28.60
2023-09-06T18:21:31.792Z,28.50
2023-09-06T18:24:04.362Z,28.40
2023-09-06T18:26:31.342Z,28.20
2023-09-06T18:28:58.384Z,28.20
2023-09-06T18:31:25.690Z,28.00
2023-09-06T18:33:52.629Z,28.00
2023-09-06T18:36:21.899Z,27.90
2023-09-06T18:38:49.448Z,27.80
2023-09-06T18:41:16.402Z,27.70
2023-09-06T18:43:43.383Z,27.60
2023-09-06T18:46:10.421Z,27.50
2023-09-06T18:48:39.609Z,27.40
2023-09-06T18:51:09.973Z,27.30
2023-09-06T18:53:37.860Z,27.20
2023-09-06T18:56:05.826Z,27.10
2023-09-06T18:58:34.433Z,27.10
2023-09-06T19:01:01.747Z,27.10
2023-09-06T19:03:28.979Z,26.90
2023-09-06T19:05:58.703Z,26.90
2023-09-06T19:08:25.599Z,26.70
2023-09-06T19:10:52.707Z,26.70
2023-09-06T19:13:22.624Z,26.60
2023-09-06T19:15:52.368Z,26.50
2023-09-06T19:18:19.611Z,26.40
2023-09-06T19:20:46.597Z,26.40
2023-09-06T19:23:22.029Z,26.20
2023-09-06T19:25:55.571Z,26.20
2023-09-06T19:28:23.585Z,26.10
2023-09-06T19:30:57.983Z,26.10
2023-09-06T19:33:25.874Z,25.90
2023-09-06T19:35:53.629Z,25.90
2023-09-06T19:38:23.444Z,25.80
2023-09-06T19:40:53.307Z,25.80
2023-09-06T19:43:46.721Z,25.70
2023-09-06T19:46:13.810Z,25.60
2023-09-06T19:48:54.611Z,25.50
2023-09-06T19:51:28.981Z,25.50
2023-09-06T19:53:56.073Z,25.40
2023-09-06T19:56:24.206Z,25.40
2023-09-06T19:58:54.498Z,25.30
2023-09-06T20:01:21.829Z,25.30
2023-09-06T20:03:49.052Z,25.20
2023-09-06T20:06:21.910Z,25.20
2023-09-06T20:08:48.901Z,25.10
2023-09-06T20:11:25.467Z,25.10
2023-09-06T20:13:53.701Z,25.00
2023-09-06T20:16:21.444Z,24.90
2023-09-06T20:18:50.592Z,24.90
2023-09-06T20:21:17.542Z,24.80
2023-09-06T20:23:46.324Z,24.80
2023-09-06T20:26:19.323Z,24.70
2023-09-06T20:28:55.287Z,24.60
2023-09-06T20:31:22.684Z,24.50
2023-09-06T20:33:49.650Z,24.50
2023-09-06T20:36:16.742Z,24.40
2023-09-06T20:38:46.706Z,24.40
2023-09-06T20:41:14.171Z,24.30
2023-09-06T20:43:44.020Z,24.30
2023-09-06T20:46:33.430Z,24.20
2023-09-06T20:49:00.894Z,24.20
2023-09-06T20:51:28.373Z,24.10
2023-09-06T20:53:55.413Z,24.00
2023-09-06T20:56:22.161Z,24.00
2023-09-06T20:58:51.825Z,24.00
2023-09-06T21:01:25.032Z,23.90
2023-09-06T21:03:53.037Z,23.90
2023-09-06T21:06:21.215Z,23.80
2023-09-06T21:08:48.392Z,23.80
2023-09-06T21:11:15.540Z,23.70
2023-09-06T21:13:42.572Z,23.70
2023-09-06T21:16:21.165Z,23.70
2023-09-06T21:18:48.488Z,23.60
2023-09-06T21:21:18.041Z,23.60
2023-09-06T21:23:47.708Z,23.50
2023-09-06T21:26:17.629Z,23.50
2023-09-06T21:28:55.125Z,23.40
2023-09-06T21:31:33.588Z,23.40
2023-09-06T21:34:00.789Z,23.40
2023-09-06T21:36:30.890Z,23.30
2023-09-06T21:39:00.686Z,23.20
2023-09-06T21:41:30.194Z,23.20
2023-09-06T21:44:04.517Z,23.20
2023-09-06T21:46:31.532Z,23.10
2023-09-06T21:48:58.438Z,23.10
2023-09-06T21:51:28.533Z,23.10
2023-09-06T21:53:58.772Z,23.00
2023-09-06T21:56:33.140Z,23.00
2023-09-06T21:59:16.477Z,22.90
2023-09-06T22:01:53.707Z,22.90
2023-09-06T22:04:23.317Z,22.80
2023-09-06T22:06:52.893Z,22.80
2023-09-06T22:09:19.767Z,22.70
2023-09-06T22:11:52.590Z,22.70
2023-09-06T22:14:19.568Z,22.60
2023-09-06T22:16:49.111Z,22.60
2023-09-06T22:19:19.237Z,22.60
2023-09-06T22:21:49.287Z,22.50
2023-09-06T22:24:24.827Z,22.40
2023-09-06T22:26:51.738Z,22.40
2023-09-06T22:29:21.402Z,22.40
2023-09-06T22:31:54.868Z,22.30
2023-09-06T22:34:22.689Z,22.30
2023-09-06T22:36:52.956Z,22.20
2023-09-06T22:39:19.999Z,22.30
2023-09-06T22:41:46.900Z,22.20
2023-09-06T22:44:16.755Z,22.20
2023-09-06T22:46:59.169Z,22.10
2023-09-06T22:49:55.972Z,22.40
2023-09-06T22:52:32.397Z,22.00
2023-09-06T22:54:59.385Z,22.00
2023-09-06T22:57:26.599Z,22.00
2023-09-06T22:59:56.789Z,21.90
2023-09-06T23:02:34.955Z,21.90
2023-09-06T23:05:02.091Z,21.90
2023-09-06T23:07:35.555Z,21.90
2023-09-06T23:10:06.271Z,21.80
2023-09-06T23:12:33.909Z,21.80
2023-09-06T23:15:12.430Z,21.80
2023-09-06T23:17:43.325Z,21.70
2023-09-06T23:20:20.414Z,21.60
2023-09-06T23:22:54.280Z,21.70
2023-09-06T23:25:23.234Z,21.60
2023-09-06T23:28:01.784Z,21.60
2023-09-06T23:30:34.583Z,21.50
2023-09-06T23:33:08.184Z,21.50
2023-09-06T23:35:37.612Z,21.50
2023-09-06T23:38:08.457Z,21.40
2023-09-06T23:40:36.051Z,21.40
2023-09-06T23:43:11.280Z,21.40
2023-09-06T23:45:56.141Z,21.30
2023-09-06T23:48:24.512Z,21.30
2023-09-06T23:50:53.236Z,21.20
2023-09-06T23:53:21.214Z,21.20
2023-09-06T23:55:48.229Z,21.20
2023-09-06T23:58:15.069Z,21.10
